• Join FlightAware (Why Join?)
  • Login
  • US Flag 
11:39AM EDT


 

Airport Tracker/Info


-or-


 

Live Flight TrackerFlight Track Log ✈ N147SW ✈ 19-Mar-2014 ✈ KPIE - MYBC / CCZ

Flight Track Log - Related Links

Times and Time Zones

All times are in EDT time to prevent confusion due to time zone crossing. See the N147SW flight status page for this flight to view local times or setup timezone preferences in your user account.

Time Position Orientation Groundspeed Altitude Reporting Facility
EDT Latitude Longitude Course Direction KTS MPH feet Rate Location/Type
07:35AM 27.9167 -82.6833 291° West 129 148 400  Level Tampa TRACON
07:36AM 27.9333 -82.7333 291° West 216 249 1,700 3,120 Climbing Tampa TRACON
07:37AM 27.9000 -82.7833 233° Southwest 244 281 5,800 3,060 Climbing Tampa TRACON
07:39AM 27.7700 -82.7183 156° South 276 318 11,300 2,160 Climbing Miami Center
07:40AM 27.6925 -82.6767 155° Southeast 285 328 12,600 1,680 Climbing Miami Center
07:41AM 27.6089 -82.6303 154° Southeast 317 365 14,700 1,800 Climbing Miami Center
07:42AM 27.5169 -82.5789 154° Southeast 346 398 16,300 2,340 Climbing Miami Center
07:43AM 27.4214 -82.5203 151° Southeast 360 414 19,400 2,940 Climbing Miami Center
07:44AM 27.3664 -82.4289 124° Southeast 352 405 22,200 2,040 Climbing Miami Center
07:45AM 27.3264 -82.3289 114° Southeast 361 415 23,500 1,080 Climbing Miami Center
07:46AM 27.2769 -82.2003 113° Southeast 393 452 24,400 900 Climbing Miami Center
07:47AM 27.2250 -82.0767 115° Southeast 422 486 25,300 780 Climbing Miami Center
07:48AM 27.1714 -81.9481 115° Southeast 440 506 26,000 780 Climbing Miami Center
07:49AM 27.1253 -81.8319 114° Southeast 452 520 26,900 900 Climbing Miami Center
07:50AM 27.0692 -81.7036 116° Southeast 459 528 27,800 840 Climbing Miami Center
07:51AM 27.0092 -81.5542 114° Southeast 459 528 28,600 600 Climbing Miami Center
07:52AM 26.9550 -81.4192 114° Southeast 466 536 29,000 180 Climbing Miami Center
07:53AM 26.8883 -81.2864 119° Southeast 485 558 29,000  Level Miami Center
07:54AM 26.8081 -81.1764 129° Southeast 495 570 29,000  Level Miami Center
07:55AM 26.7119 -81.0378 128° Southeast 506 582 29,000  Level Miami Center
07:56AM 26.6342 -80.9028 123° Southeast 511 588 29,000  Level Miami Center
07:57AM 26.5797 -80.7569 113° Southeast 511 588 29,000  Level Miami Center
07:58AM 26.5247 -80.6228 115° Southeast 516 594 29,000  Level Miami Center
07:59AM 26.4644 -80.4536 112° Southeast 521 600 29,000  Level Miami Center
08:00AM 26.4053 -80.3081 114° Southeast 521 600 29,000  Level Miami Center
08:01AM 26.3439 -80.1581 115° Southeast 516 594 29,000  Level Miami Center
08:02AM 26.2983 -80.0408 113° Southeast 522 601 29,000  Level Miami Center
08:03AM 26.2331 -79.8769 114° Southeast 527 606 29,000  Level Miami Center
08:04AM 26.1756 -79.7275 113° Southeast 527 606 29,000  Level Miami Center
08:05AM 26.1136 -79.5778 115° Southeast 527 606 29,000  Level Miami Center
08:06AM 26.0536 -79.4283 114° Southeast 527 606 29,000  Level Miami Center
08:07AM 25.9892 -79.2769 115° Southeast 527 606 29,000  Level Miami Center
08:08AM 25.9311 -79.1325 114° Southeast 527 606 29,000  Level Miami Center
08:09AM 25.8725 -78.9858 114° Southeast 522 601 29,000  Level Miami Center
08:10AM 25.8164 -78.8278 111° Southeast 512 589 29,000  Level Miami Center
08:11AM 25.7553 -78.7047 119° Southeast 478 550 29,000  Level Miami Center
08:12AM 25.7044 -78.5861 115° Southeast 446 513 29,000  Level Miami Center
08:13AM 25.6597 -78.4703 113° Southeast 424 488 29,000  Level Miami Center
08:14AM 25.6128 -78.3636 116° Southeast 403 464 29,000  Level Miami Center
08:15AM 25.5761 -78.2642 112° Southeast 369 425 29,000  Level Miami Center
08:16AM 25.5353 -78.1783 118° Southeast 335 386 29,000  Level Miami Center
08:17AM 25.5025 -78.0953 114° Southeast 304 350 29,000  Level Miami Center
08:18AM 25.4656 -78.0075 115° Southeast 299 344 29,000  Level Miami Center
08:19AM 25.4306 -77.9586 128° Southeast 288 331 29,000  Level Miami Center
08:20AM 25.3908 -77.9422 160° South 203 234 29,000  Level Miami Center